sensor_id;sensor_type;location;lat;lon;timestamp;P1;durP1;ratioP1;P2;durP2;ratioP2
73951;SDS011;62304;47.662;18.324;2023-05-10T00:01:04;5.17;;;1.83;;
73951;SDS011;62304;47.662;18.324;2023-05-10T00:04:07;3.97;;;1.65;;
73951;SDS011;62304;47.662;18.324;2023-05-10T00:07:10;3.87;;;1.33;;
73951;SDS011;62304;47.662;18.324;2023-05-10T00:10:13;3.62;;;1.62;;
73951;SDS011;62304;47.662;18.324;2023-05-10T00:13:16;4.87;;;2.20;;
73951;SDS011;62304;47.662;18.324;2023-05-10T00:16:19;5.27;;;2.13;;
73951;SDS011;62304;47.662;18.324;2023-05-10T00:19:22;4.75;;;1.95;;
73951;SDS011;62304;47.662;18.324;2023-05-10T00:22:26;5.95;;;2.80;;
73951;SDS011;62304;47.662;18.324;2023-05-10T00:25:28;5.35;;;2.35;;
73951;SDS011;62304;47.662;18.324;2023-05-10T00:28:31;5.97;;;2.30;;
73951;SDS011;62304;47.662;18.324;2023-05-10T00:31:34;5.80;;;2.87;;
73951;SDS011;62304;47.662;18.324;2023-05-10T00:34:37;6.00;;;2.60;;
73951;SDS011;62304;47.662;18.324;2023-05-10T00:37:40;9.88;;;3.20;;
73951;SDS011;62304;47.662;18.324;2023-05-10T00:40:43;7.40;;;2.83;;
73951;SDS011;62304;47.662;18.324;2023-05-10T00:43:47;6.95;;;2.75;;
73951;SDS011;62304;47.662;18.324;2023-05-10T00:46:51;6.17;;;2.53;;
73951;SDS011;62304;47.662;18.324;2023-05-10T00:49:54;5.25;;;2.75;;
73951;SDS011;62304;47.662;18.324;2023-05-10T00:52:59;8.82;;;3.05;;
73951;SDS011;62304;47.662;18.324;2023-05-10T00:56:03;6.10;;;2.37;;
73951;SDS011;62304;47.662;18.324;2023-05-10T00:59:09;6.15;;;3.03;;
73951;SDS011;62304;47.662;18.324;2023-05-10T01:02:12;7.27;;;2.20;;
73951;SDS011;62304;47.662;18.324;2023-05-10T01:05:15;5.28;;;2.15;;
73951;SDS011;62304;47.662;18.324;2023-05-10T01:08:18;5.95;;;2.62;;
73951;SDS011;62304;47.662;18.324;2023-05-10T01:11:22;6.40;;;2.90;;
73951;SDS011;62304;47.662;18.324;2023-05-10T01:14:25;6.90;;;3.20;;
73951;SDS011;62304;47.662;18.324;2023-05-10T01:17:29;6.40;;;2.73;;
73951;SDS011;62304;47.662;18.324;2023-05-10T01:20:35;5.47;;;1.70;;
73951;SDS011;62304;47.662;18.324;2023-05-10T01:23:55;5.05;;;2.30;;
73951;SDS011;62304;47.662;18.324;2023-05-10T01:27:25;5.43;;;2.17;;
73951;SDS011;62304;47.662;18.324;2023-05-10T01:34:07;4.20;;;1.67;;
73951;SDS011;62304;47.662;18.324;2023-05-10T01:37:16;4.43;;;1.80;;
73951;SDS011;62304;47.662;18.324;2023-05-10T01:40:32;5.05;;;1.95;;
73951;SDS011;62304;47.662;18.324;2023-05-10T01:43:52;4.70;;;1.95;;
73951;SDS011;62304;47.662;18.324;2023-05-10T01:50:42;3.77;;;1.57;;
73951;SDS011;62304;47.662;18.324;2023-05-10T01:53:47;4.97;;;2.00;;
73951;SDS011;62304;47.662;18.324;2023-05-10T01:57:03;4.00;;;1.75;;
73951;SDS011;62304;47.662;18.324;2023-05-10T02:00:08;5.47;;;2.00;;
73951;SDS011;62304;47.662;18.324;2023-05-10T02:03:15;6.10;;;1.92;;
73951;SDS011;62304;47.662;18.324;2023-05-10T02:06:21;4.93;;;1.90;;
73951;SDS011;62304;47.662;18.324;2023-05-10T02:09:27;4.55;;;1.80;;
73951;SDS011;62304;47.662;18.324;2023-05-10T02:12:35;4.00;;;1.77;;
73951;SDS011;62304;47.662;18.324;2023-05-10T02:15:39;4.22;;;1.70;;
73951;SDS011;62304;47.662;18.324;2023-05-10T02:18:43;5.12;;;1.95;;
73951;SDS011;62304;47.662;18.324;2023-05-10T02:21:46;8.07;;;2.23;;
73951;SDS011;62304;47.662;18.324;2023-05-10T02:24:50;4.43;;;1.40;;
73951;SDS011;62304;47.662;18.324;2023-05-10T02:27:54;5.10;;;1.73;;
73951;SDS011;62304;47.662;18.324;2023-05-10T02:30:59;4.28;;;1.73;;
73951;SDS011;62304;47.662;18.324;2023-05-10T02:34:02;4.93;;;1.85;;
73951;SDS011;62304;47.662;18.324;2023-05-10T02:37:09;7.90;;;1.90;;
73951;SDS011;62304;47.662;18.324;2023-05-10T02:40:12;4.78;;;1.65;;
73951;SDS011;62304;47.662;18.324;2023-05-10T02:43:17;5.57;;;2.08;;
73951;SDS011;62304;47.662;18.324;2023-05-10T02:46:21;8.05;;;2.72;;
73951;SDS011;62304;47.662;18.324;2023-05-10T02:49:24;5.45;;;2.10;;
73951;SDS011;62304;47.662;18.324;2023-05-10T02:52:29;6.13;;;2.10;;
73951;SDS011;62304;47.662;18.324;2023-05-10T02:55:50;6.15;;;2.40;;
73951;SDS011;62304;47.662;18.324;2023-05-10T02:58:55;4.80;;;2.00;;
73951;SDS011;62304;47.662;18.324;2023-05-10T03:01:58;6.40;;;2.50;;
73951;SDS011;62304;47.662;18.324;2023-05-10T03:05:02;6.35;;;2.53;;
73951;SDS011;62304;47.662;18.324;2023-05-10T03:08:06;17.13;;;3.03;;
73951;SDS011;62304;47.662;18.324;2023-05-10T03:17:52;7.15;;;3.05;;
73951;SDS011;62304;47.662;18.324;2023-05-10T03:21:03;6.90;;;2.62;;
73951;SDS011;62304;47.662;18.324;2023-05-10T03:24:09;7.47;;;2.67;;
73951;SDS011;62304;47.662;18.324;2023-05-10T03:27:18;6.90;;;2.53;;
73951;SDS011;62304;47.662;18.324;2023-05-10T03:30:22;7.15;;;2.97;;
73951;SDS011;62304;47.662;18.324;2023-05-10T03:33:27;8.15;;;2.72;;
73951;SDS011;62304;47.662;18.324;2023-05-10T03:36:30;5.37;;;2.50;;
73951;SDS011;62304;47.662;18.324;2023-05-10T03:39:33;6.60;;;2.77;;
73951;SDS011;62304;47.662;18.324;2023-05-10T03:42:36;10.43;;;2.90;;
73951;SDS011;62304;47.662;18.324;2023-05-10T03:45:40;6.78;;;3.03;;
73951;SDS011;62304;47.662;18.324;2023-05-10T03:48:43;7.03;;;2.92;;
73951;SDS011;62304;47.662;18.324;2023-05-10T03:51:46;7.87;;;3.55;;
73951;SDS011;62304;47.662;18.324;2023-05-10T03:54:50;9.53;;;4.63;;
73951;SDS011;62304;47.662;18.324;2023-05-10T03:57:53;11.00;;;5.03;;
73951;SDS011;62304;47.662;18.324;2023-05-10T04:00:56;11.85;;;4.95;;
73951;SDS011;62304;47.662;18.324;2023-05-10T04:03:59;13.13;;;5.00;;
73951;SDS011;62304;47.662;18.324;2023-05-10T04:07:05;8.73;;;4.15;;
73951;SDS011;62304;47.662;18.324;2023-05-10T04:10:08;10.30;;;5.03;;
73951;SDS011;62304;47.662;18.324;2023-05-10T04:13:12;8.02;;;4.22;;
73951;SDS011;62304;47.662;18.324;2023-05-10T04:16:15;12.88;;;5.05;;
73951;SDS011;62304;47.662;18.324;2023-05-10T04:19:18;11.88;;;5.15;;
73951;SDS011;62304;47.662;18.324;2023-05-10T04:22:21;8.75;;;4.80;;
73951;SDS011;62304;47.662;18.324;2023-05-10T04:25:23;12.10;;;4.80;;
73951;SDS011;62304;47.662;18.324;2023-05-10T04:28:27;14.25;;;4.97;;
73951;SDS011;62304;47.662;18.324;2023-05-10T04:31:30;9.63;;;4.62;;
73951;SDS011;62304;47.662;18.324;2023-05-10T04:34:33;9.23;;;4.87;;
73951;SDS011;62304;47.662;18.324;2023-05-10T04:37:36;8.13;;;3.78;;
73951;SDS011;62304;47.662;18.324;2023-05-10T04:40:40;9.10;;;4.63;;
73951;SDS011;62304;47.662;18.324;2023-05-10T04:43:42;8.60;;;4.60;;
73951;SDS011;62304;47.662;18.324;2023-05-10T04:46:45;8.85;;;4.10;;
73951;SDS011;62304;47.662;18.324;2023-05-10T04:49:48;10.00;;;4.28;;
73951;SDS011;62304;47.662;18.324;2023-05-10T04:52:51;7.68;;;3.40;;
73951;SDS011;62304;47.662;18.324;2023-05-10T04:55:54;8.50;;;3.90;;
73951;SDS011;62304;47.662;18.324;2023-05-10T04:58:57;12.15;;;4.40;;
73951;SDS011;62304;47.662;18.324;2023-05-10T05:02:00;8.82;;;4.28;;
73951;SDS011;62304;47.662;18.324;2023-05-10T05:05:03;10.15;;;4.28;;
73951;SDS011;62304;47.662;18.324;2023-05-10T05:08:07;11.45;;;4.28;;
73951;SDS011;62304;47.662;18.324;2023-05-10T05:11:10;6.17;;;3.00;;
73951;SDS011;62304;47.662;18.324;2023-05-10T05:14:13;7.95;;;2.90;;
73951;SDS011;62304;47.662;18.324;2023-05-10T05:17:16;8.30;;;4.20;;
73951;SDS011;62304;47.662;18.324;2023-05-10T05:20:19;7.82;;;4.18;;
73951;SDS011;62304;47.662;18.324;2023-05-10T05:23:22;7.82;;;3.83;;
73951;SDS011;62304;47.662;18.324;2023-05-10T05:26:26;9.30;;;3.43;;
73951;SDS011;62304;47.662;18.324;2023-05-10T05:29:30;8.48;;;4.00;;
73951;SDS011;62304;47.662;18.324;2023-05-10T05:32:33;9.48;;;3.95;;
73951;SDS011;62304;47.662;18.324;2023-05-10T05:35:36;6.00;;;2.90;;
73951;SDS011;62304;47.662;18.324;2023-05-10T05:38:38;8.07;;;3.15;;
73951;SDS011;62304;47.662;18.324;2023-05-10T05:41:42;10.20;;;4.90;;
73951;SDS011;62304;47.662;18.324;2023-05-10T05:44:44;10.75;;;3.90;;
73951;SDS011;62304;47.662;18.324;2023-05-10T05:47:47;6.80;;;3.95;;
73951;SDS011;62304;47.662;18.324;2023-05-10T05:50:53;7.65;;;4.25;;
73951;SDS011;62304;47.662;18.324;2023-05-10T05:53:58;9.10;;;3.90;;
73951;SDS011;62304;47.662;18.324;2023-05-10T05:57:01;7.53;;;3.70;;
73951;SDS011;62304;47.662;18.324;2023-05-10T06:00:04;7.07;;;3.62;;
73951;SDS011;62304;47.662;18.324;2023-05-10T06:03:13;11.50;;;3.75;;
73951;SDS011;62304;47.662;18.324;2023-05-10T06:06:16;7.47;;;3.53;;
73951;SDS011;62304;47.662;18.324;2023-05-10T06:09:19;7.95;;;3.80;;
73951;SDS011;62304;47.662;18.324;2023-05-10T06:12:22;7.20;;;3.57;;
73951;SDS011;62304;47.662;18.324;2023-05-10T06:15:25;8.48;;;4.25;;
73951;SDS011;62304;47.662;18.324;2023-05-10T06:18:28;7.85;;;3.62;;
73951;SDS011;62304;47.662;18.324;2023-05-10T06:21:31;8.32;;;3.42;;
73951;SDS011;62304;47.662;18.324;2023-05-10T06:24:34;8.32;;;3.72;;
73951;SDS011;62304;47.662;18.324;2023-05-10T06:27:37;6.43;;;2.93;;
73951;SDS011;62304;47.662;18.324;2023-05-10T06:30:41;6.55;;;3.92;;
73951;SDS011;62304;47.662;18.324;2023-05-10T06:33:43;6.40;;;3.10;;
73951;SDS011;62304;47.662;18.324;2023-05-10T06:36:47;9.32;;;4.95;;
73951;SDS011;62304;47.662;18.324;2023-05-10T06:39:49;6.30;;;3.85;;
73951;SDS011;62304;47.662;18.324;2023-05-10T06:42:52;8.50;;;5.23;;
73951;SDS011;62304;47.662;18.324;2023-05-10T06:45:55;7.68;;;3.80;;
73951;SDS011;62304;47.662;18.324;2023-05-10T06:48:59;8.32;;;2.85;;
73951;SDS011;62304;47.662;18.324;2023-05-10T06:52:02;8.25;;;3.53;;
73951;SDS011;62304;47.662;18.324;2023-05-10T06:55:05;8.55;;;3.58;;
73951;SDS011;62304;47.662;18.324;2023-05-10T06:58:08;7.33;;;3.87;;
73951;SDS011;62304;47.662;18.324;2023-05-10T07:01:11;7.37;;;4.05;;
73951;SDS011;62304;47.662;18.324;2023-05-10T07:04:14;7.00;;;3.20;;
73951;SDS011;62304;47.662;18.324;2023-05-10T07:07:18;5.57;;;2.55;;
73951;SDS011;62304;47.662;18.324;2023-05-10T07:10:21;7.32;;;3.35;;
73951;SDS011;62304;47.662;18.324;2023-05-10T07:13:24;7.93;;;3.03;;
73951;SDS011;62304;47.662;18.324;2023-05-10T07:16:27;7.72;;;3.60;;
73951;SDS011;62304;47.662;18.324;2023-05-10T07:19:30;7.40;;;2.85;;
73951;SDS011;62304;47.662;18.324;2023-05-10T07:22:35;4.80;;;2.72;;
73951;SDS011;62304;47.662;18.324;2023-05-10T07:25:39;8.05;;;3.53;;
73951;SDS011;62304;47.662;18.324;2023-05-10T07:28:41;4.80;;;2.23;;
73951;SDS011;62304;47.662;18.324;2023-05-10T07:31:45;6.47;;;2.90;;
73951;SDS011;62304;47.662;18.324;2023-05-10T07:34:48;6.60;;;3.40;;
73951;SDS011;62304;47.662;18.324;2023-05-10T07:37:51;8.38;;;3.10;;
73951;SDS011;62304;47.662;18.324;2023-05-10T07:40:54;9.55;;;3.40;;
73951;SDS011;62304;47.662;18.324;2023-05-10T07:43:57;7.63;;;2.60;;
73951;SDS011;62304;47.662;18.324;2023-05-10T07:47:00;5.03;;;3.12;;
73951;SDS011;62304;47.662;18.324;2023-05-10T07:50:03;7.18;;;2.53;;
73951;SDS011;62304;47.662;18.324;2023-05-10T07:53:06;5.07;;;2.60;;
73951;SDS011;62304;47.662;18.324;2023-05-10T07:56:26;8.48;;;2.50;;
73951;SDS011;62304;47.662;18.324;2023-05-10T07:59:31;5.97;;;2.60;;
73951;SDS011;62304;47.662;18.324;2023-05-10T08:02:35;5.32;;;3.20;;
73951;SDS011;62304;47.662;18.324;2023-05-10T08:05:39;5.15;;;2.25;;
73951;SDS011;62304;47.662;18.324;2023-05-10T08:08:41;6.45;;;2.70;;
73951;SDS011;62304;47.662;18.324;2023-05-10T08:11:45;6.10;;;2.85;;
73951;SDS011;62304;47.662;18.324;2023-05-10T08:14:47;7.30;;;2.70;;
73951;SDS011;62304;47.662;18.324;2023-05-10T08:17:51;4.57;;;2.17;;
73951;SDS011;62304;47.662;18.324;2023-05-10T08:20:54;6.10;;;2.72;;
73951;SDS011;62304;47.662;18.324;2023-05-10T08:23:57;7.03;;;2.28;;
73951;SDS011;62304;47.662;18.324;2023-05-10T08:27:00;6.55;;;2.30;;
73951;SDS011;62304;47.662;18.324;2023-05-10T08:30:04;5.93;;;2.10;;
73951;SDS011;62304;47.662;18.324;2023-05-10T08:33:08;7.15;;;2.78;;
73951;SDS011;62304;47.662;18.324;2023-05-10T08:36:11;4.70;;;2.25;;
73951;SDS011;62304;47.662;18.324;2023-05-10T08:39:16;4.15;;;2.08;;
73951;SDS011;62304;47.662;18.324;2023-05-10T08:42:31;12.27;;;2.80;;
73951;SDS011;62304;47.662;18.324;2023-05-10T08:45:41;4.20;;;1.60;;
73951;SDS011;62304;47.662;18.324;2023-05-10T08:48:48;7.40;;;2.20;;
73951;SDS011;62304;47.662;18.324;2023-05-10T08:51:54;9.13;;;2.60;;
73951;SDS011;62304;47.662;18.324;2023-05-10T08:54:59;4.80;;;2.45;;
73951;SDS011;62304;47.662;18.324;2023-05-10T08:58:02;4.20;;;2.25;;
73951;SDS011;62304;47.662;18.324;2023-05-10T09:01:07;6.50;;;2.60;;
73951;SDS011;62304;47.662;18.324;2023-05-10T09:04:11;4.43;;;2.10;;
73951;SDS011;62304;47.662;18.324;2023-05-10T09:07:15;5.25;;;2.25;;
73951;SDS011;62304;47.662;18.324;2023-05-10T09:10:19;5.78;;;2.45;;
73951;SDS011;62304;47.662;18.324;2023-05-10T09:13:23;4.47;;;2.37;;
73951;SDS011;62304;47.662;18.324;2023-05-10T09:16:26;5.37;;;2.37;;
73951;SDS011;62304;47.662;18.324;2023-05-10T09:19:30;9.23;;;2.67;;
73951;SDS011;62304;47.662;18.324;2023-05-10T09:22:33;3.37;;;1.73;;
73951;SDS011;62304;47.662;18.324;2023-05-10T09:25:38;8.25;;;2.30;;
73951;SDS011;62304;47.662;18.324;2023-05-10T09:28:54;8.52;;;2.72;;
73951;SDS011;62304;47.662;18.324;2023-05-10T09:31:58;8.17;;;2.47;;
73951;SDS011;62304;47.662;18.324;2023-05-10T09:35:11;4.57;;;1.80;;
73951;SDS011;62304;47.662;18.324;2023-05-10T09:38:18;8.18;;;2.50;;
73951;SDS011;62304;47.662;18.324;2023-05-10T09:41:22;9.30;;;2.78;;
73951;SDS011;62304;47.662;18.324;2023-05-10T09:44:27;5.78;;;1.95;;
73951;SDS011;62304;47.662;18.324;2023-05-10T09:47:36;4.63;;;2.00;;
73951;SDS011;62304;47.662;18.324;2023-05-10T09:50:39;4.53;;;2.10;;
73951;SDS011;62304;47.662;18.324;2023-05-10T09:53:44;8.57;;;2.65;;
73951;SDS011;62304;47.662;18.324;2023-05-10T09:56:47;5.18;;;2.40;;
73951;SDS011;62304;47.662;18.324;2023-05-10T09:59:50;6.22;;;3.10;;
73951;SDS011;62304;47.662;18.324;2023-05-10T10:02:59;6.27;;;2.50;;
73951;SDS011;62304;47.662;18.324;2023-05-10T10:06:03;4.35;;;2.20;;
73951;SDS011;62304;47.662;18.324;2023-05-10T10:09:28;5.78;;;2.30;;
73951;SDS011;62304;47.662;18.324;2023-05-10T10:12:31;5.32;;;2.10;;
73951;SDS011;62304;47.662;18.324;2023-05-10T10:15:35;7.60;;;1.98;;
73951;SDS011;62304;47.662;18.324;2023-05-10T10:18:38;12.43;;;2.33;;
73951;SDS011;62304;47.662;18.324;2023-05-10T10:21:41;7.55;;;2.55;;
73951;SDS011;62304;47.662;18.324;2023-05-10T10:24:45;7.87;;;2.50;;
73951;SDS011;62304;47.662;18.324;2023-05-10T10:30:55;5.68;;;2.30;;
73951;SDS011;62304;47.662;18.324;2023-05-10T10:34:05;3.93;;;1.73;;
73951;SDS011;62304;47.662;18.324;2023-05-10T10:37:11;5.95;;;2.40;;
73951;SDS011;62304;47.662;18.324;2023-05-10T10:43:36;4.60;;;2.25;;
73951;SDS011;62304;47.662;18.324;2023-05-10T10:50:25;7.93;;;2.37;;
73951;SDS011;62304;47.662;18.324;2023-05-10T10:53:29;4.45;;;2.25;;
73951;SDS011;62304;47.662;18.324;2023-05-10T10:56:34;4.37;;;2.08;;
73951;SDS011;62304;47.662;18.324;2023-05-10T10:59:41;4.62;;;2.40;;
73951;SDS011;62304;47.662;18.324;2023-05-10T11:02:52;4.97;;;2.08;;
73951;SDS011;62304;47.662;18.324;2023-05-10T11:06:05;7.23;;;2.10;;
73951;SDS011;62304;47.662;18.324;2023-05-10T11:09:09;8.65;;;2.70;;
73951;SDS011;62304;47.662;18.324;2023-05-10T11:12:14;7.30;;;2.62;;
73951;SDS011;62304;47.662;18.324;2023-05-10T11:15:17;4.80;;;1.98;;
73951;SDS011;62304;47.662;18.324;2023-05-10T11:18:23;14.57;;;3.12;;
73951;SDS011;62304;47.662;18.324;2023-05-10T11:21:28;5.87;;;1.87;;
73951;SDS011;62304;47.662;18.324;2023-05-10T11:24:33;3.40;;;1.70;;
73951;SDS011;62304;47.662;18.324;2023-05-10T11:27:37;9.32;;;1.92;;
73951;SDS011;62304;47.662;18.324;2023-05-10T11:30:40;3.90;;;1.42;;
73951;SDS011;62304;47.662;18.324;2023-05-10T11:33:47;5.68;;;2.08;;
73951;SDS011;62304;47.662;18.324;2023-05-10T11:36:54;4.00;;;2.17;;
73951;SDS011;62304;47.662;18.324;2023-05-10T11:39:58;4.37;;;2.12;;
73951;SDS011;62304;47.662;18.324;2023-05-10T11:43:00;4.70;;;2.45;;
73951;SDS011;62304;47.662;18.324;2023-05-10T11:46:07;5.95;;;2.17;;
73951;SDS011;62304;47.662;18.324;2023-05-10T11:49:12;6.40;;;1.98;;
73951;SDS011;62304;47.662;18.324;2023-05-10T11:52:17;4.07;;;2.00;;
73951;SDS011;62304;47.662;18.324;2023-05-10T11:55:21;3.60;;;1.50;;
73951;SDS011;62304;47.662;18.324;2023-05-10T11:58:24;4.25;;;2.10;;
73951;SDS011;62304;47.662;18.324;2023-05-10T12:01:28;4.80;;;1.87;;
73951;SDS011;62304;47.662;18.324;2023-05-10T12:04:31;4.75;;;2.30;;
73951;SDS011;62304;47.662;18.324;2023-05-10T12:07:34;6.57;;;2.53;;
73951;SDS011;62304;47.662;18.324;2023-05-10T12:10:38;4.75;;;2.60;;
73951;SDS011;62304;47.662;18.324;2023-05-10T12:13:41;4.25;;;2.40;;
73951;SDS011;62304;47.662;18.324;2023-05-10T12:16:45;5.35;;;2.08;;
73951;SDS011;62304;47.662;18.324;2023-05-10T12:19:50;6.10;;;2.33;;
73951;SDS011;62304;47.662;18.324;2023-05-10T12:22:54;5.23;;;1.97;;
73951;SDS011;62304;47.662;18.324;2023-05-10T12:26:02;7.75;;;2.17;;
73951;SDS011;62304;47.662;18.324;2023-05-10T12:29:14;3.83;;;1.65;;
73951;SDS011;62304;47.662;18.324;2023-05-10T12:32:19;5.80;;;2.17;;
73951;SDS011;62304;47.662;18.324;2023-05-10T12:35:22;5.47;;;1.92;;
73951;SDS011;62304;47.662;18.324;2023-05-10T12:41:36;4.57;;;1.87;;
73951;SDS011;62304;47.662;18.324;2023-05-10T12:44:41;6.20;;;2.25;;
73951;SDS011;62304;47.662;18.324;2023-05-10T12:47:44;5.07;;;1.73;;
73951;SDS011;62304;47.662;18.324;2023-05-10T12:50:48;5.05;;;1.60;;
73951;SDS011;62304;47.662;18.324;2023-05-10T12:53:51;6.27;;;1.80;;
73951;SDS011;62304;47.662;18.324;2023-05-10T12:56:54;4.87;;;2.35;;
73951;SDS011;62304;47.662;18.324;2023-05-10T12:59:57;4.55;;;1.60;;
73951;SDS011;62304;47.662;18.324;2023-05-10T13:03:00;6.00;;;2.08;;
73951;SDS011;62304;47.662;18.324;2023-05-10T13:06:03;7.68;;;2.30;;
73951;SDS011;62304;47.662;18.324;2023-05-10T13:09:06;5.83;;;1.93;;
73951;SDS011;62304;47.662;18.324;2023-05-10T13:12:10;6.65;;;2.28;;
73951;SDS011;62304;47.662;18.324;2023-05-10T13:15:13;5.00;;;1.85;;
73951;SDS011;62304;47.662;18.324;2023-05-10T13:18:17;4.40;;;1.80;;
73951;SDS011;62304;47.662;18.324;2023-05-10T13:21:20;4.40;;;2.30;;
73951;SDS011;62304;47.662;18.324;2023-05-10T13:24:23;5.20;;;1.63;;
73951;SDS011;62304;47.662;18.324;2023-05-10T13:27:26;5.32;;;1.60;;
73951;SDS011;62304;47.662;18.324;2023-05-10T13:30:29;4.72;;;1.80;;
73951;SDS011;62304;47.662;18.324;2023-05-10T13:33:35;4.15;;;1.70;;
73951;SDS011;62304;47.662;18.324;2023-05-10T13:36:38;4.53;;;2.12;;
73951;SDS011;62304;47.662;18.324;2023-05-10T13:39:41;5.00;;;1.80;;
73951;SDS011;62304;47.662;18.324;2023-05-10T13:42:44;4.90;;;1.80;;
73951;SDS011;62304;47.662;18.324;2023-05-10T13:45:47;6.07;;;1.92;;
73951;SDS011;62304;47.662;18.324;2023-05-10T13:48:50;4.10;;;1.58;;
73951;SDS011;62304;47.662;18.324;2023-05-10T13:51:53;3.92;;;1.85;;
73951;SDS011;62304;47.662;18.324;2023-05-10T13:54:56;5.20;;;1.80;;
73951;SDS011;62304;47.662;18.324;2023-05-10T13:57:59;4.80;;;1.40;;
73951;SDS011;62304;47.662;18.324;2023-05-10T14:01:02;5.07;;;1.90;;
73951;SDS011;62304;47.662;18.324;2023-05-10T14:04:07;4.07;;;2.00;;
73951;SDS011;62304;47.662;18.324;2023-05-10T14:07:12;5.32;;;1.65;;
73951;SDS011;62304;47.662;18.324;2023-05-10T14:10:15;8.13;;;1.77;;
73951;SDS011;62304;47.662;18.324;2023-05-10T14:13:18;5.20;;;1.80;;
73951;SDS011;62304;47.662;18.324;2023-05-10T14:16:21;5.05;;;1.87;;
73951;SDS011;62304;47.662;18.324;2023-05-10T14:19:24;7.85;;;1.65;;
73951;SDS011;62304;47.662;18.324;2023-05-10T14:22:27;4.32;;;1.60;;
73951;SDS011;62304;47.662;18.324;2023-05-10T14:25:30;5.23;;;1.83;;
73951;SDS011;62304;47.662;18.324;2023-05-10T14:28:33;4.82;;;1.70;;
73951;SDS011;62304;47.662;18.324;2023-05-10T14:31:36;11.43;;;2.05;;
73951;SDS011;62304;47.662;18.324;2023-05-10T14:34:39;4.87;;;1.73;;
73951;SDS011;62304;47.662;18.324;2023-05-10T14:37:41;6.47;;;1.70;;
73951;SDS011;62304;47.662;18.324;2023-05-10T14:40:45;4.33;;;1.70;;
73951;SDS011;62304;47.662;18.324;2023-05-10T14:43:47;4.53;;;1.80;;
73951;SDS011;62304;47.662;18.324;2023-05-10T14:46:50;7.45;;;1.75;;
73951;SDS011;62304;47.662;18.324;2023-05-10T14:49:53;7.82;;;1.83;;
73951;SDS011;62304;47.662;18.324;2023-05-10T14:52:57;7.62;;;1.65;;
73951;SDS011;62304;47.662;18.324;2023-05-10T14:56:00;6.07;;;1.70;;
73951;SDS011;62304;47.662;18.324;2023-05-10T14:59:06;4.20;;;1.70;;
73951;SDS011;62304;47.662;18.324;2023-05-10T15:02:09;7.15;;;1.87;;
73951;SDS011;62304;47.662;18.324;2023-05-10T15:05:13;5.12;;;1.90;;
73951;SDS011;62304;47.662;18.324;2023-05-10T15:08:17;6.37;;;1.92;;
73951;SDS011;62304;47.662;18.324;2023-05-10T15:11:20;7.13;;;1.50;;
73951;SDS011;62304;47.662;18.324;2023-05-10T15:14:23;3.47;;;1.37;;
73951;SDS011;62304;47.662;18.324;2023-05-10T15:17:26;4.37;;;1.55;;
73951;SDS011;62304;47.662;18.324;2023-05-10T15:20:29;6.80;;;1.48;;
73951;SDS011;62304;47.662;18.324;2023-05-10T15:23:32;3.50;;;1.60;;
73951;SDS011;62304;47.662;18.324;2023-05-10T15:26:35;4.90;;;2.10;;
73951;SDS011;62304;47.662;18.324;2023-05-10T15:29:38;3.67;;;1.40;;
73951;SDS011;62304;47.662;18.324;2023-05-10T15:32:40;3.15;;;1.23;;
73951;SDS011;62304;47.662;18.324;2023-05-10T15:35:44;4.65;;;1.48;;
73951;SDS011;62304;47.662;18.324;2023-05-10T15:38:46;7.82;;;1.73;;
73951;SDS011;62304;47.662;18.324;2023-05-10T15:41:50;4.93;;;1.40;;
73951;SDS011;62304;47.662;18.324;2023-05-10T15:44:53;5.32;;;2.10;;
73951;SDS011;62304;47.662;18.324;2023-05-10T15:47:56;4.47;;;1.70;;
73951;SDS011;62304;47.662;18.324;2023-05-10T15:51:00;6.10;;;1.83;;
73951;SDS011;62304;47.662;18.324;2023-05-10T15:54:03;5.32;;;1.70;;
73951;SDS011;62304;47.662;18.324;2023-05-10T15:57:09;6.43;;;2.10;;
73951;SDS011;62304;47.662;18.324;2023-05-10T16:00:12;3.55;;;1.55;;
73951;SDS011;62304;47.662;18.324;2023-05-10T16:03:15;5.35;;;1.60;;
73951;SDS011;62304;47.662;18.324;2023-05-10T16:06:18;4.80;;;1.70;;
73951;SDS011;62304;47.662;18.324;2023-05-10T16:09:21;4.50;;;1.60;;
73951;SDS011;62304;47.662;18.324;2023-05-10T16:12:24;5.53;;;1.70;;
73951;SDS011;62304;47.662;18.324;2023-05-10T16:15:27;5.30;;;1.80;;
73951;SDS011;62304;47.662;18.324;2023-05-10T16:18:30;4.57;;;1.80;;
73951;SDS011;62304;47.662;18.324;2023-05-10T16:21:34;3.72;;;1.60;;
73951;SDS011;62304;47.662;18.324;2023-05-10T16:24:37;4.65;;;1.75;;
73951;SDS011;62304;47.662;18.324;2023-05-10T16:27:40;5.10;;;2.13;;
73951;SDS011;62304;47.662;18.324;2023-05-10T16:30:43;5.50;;;1.90;;
73951;SDS011;62304;47.662;18.324;2023-05-10T16:33:45;5.20;;;2.53;;
73951;SDS011;62304;47.662;18.324;2023-05-10T16:36:49;7.15;;;1.70;;
73951;SDS011;62304;47.662;18.324;2023-05-10T16:39:52;5.28;;;1.80;;
73951;SDS011;62304;47.662;18.324;2023-05-10T16:42:55;4.33;;;1.50;;
73951;SDS011;62304;47.662;18.324;2023-05-10T16:45:58;3.45;;;1.60;;
73951;SDS011;62304;47.662;18.324;2023-05-10T16:49:01;3.62;;;1.70;;
73951;SDS011;62304;47.662;18.324;2023-05-10T16:52:04;6.07;;;3.35;;
73951;SDS011;62304;47.662;18.324;2023-05-10T16:55:07;6.25;;;1.70;;
73951;SDS011;62304;47.662;18.324;2023-05-10T16:58:10;4.63;;;1.60;;
73951;SDS011;62304;47.662;18.324;2023-05-10T17:01:13;4.30;;;1.70;;
73951;SDS011;62304;47.662;18.324;2023-05-10T17:04:17;4.40;;;1.70;;
73951;SDS011;62304;47.662;18.324;2023-05-10T17:07:20;4.47;;;1.27;;
73951;SDS011;62304;47.662;18.324;2023-05-10T17:10:27;4.40;;;1.60;;
73951;SDS011;62304;47.662;18.324;2023-05-10T17:13:30;3.70;;;1.10;;
73951;SDS011;62304;47.662;18.324;2023-05-10T17:16:33;5.72;;;1.40;;
73951;SDS011;62304;47.662;18.324;2023-05-10T17:19:37;5.32;;;2.15;;
73951;SDS011;62304;47.662;18.324;2023-05-10T17:22:40;4.15;;;1.75;;
73951;SDS011;62304;47.662;18.324;2023-05-10T17:25:43;3.70;;;1.42;;
73951;SDS011;62304;47.662;18.324;2023-05-10T17:28:46;4.33;;;1.20;;
73951;SDS011;62304;47.662;18.324;2023-05-10T17:31:49;4.47;;;1.23;;
73951;SDS011;62304;47.662;18.324;2023-05-10T17:34:52;5.87;;;1.58;;
73951;SDS011;62304;47.662;18.324;2023-05-10T17:37:55;3.42;;;1.17;;
73951;SDS011;62304;47.662;18.324;2023-05-10T17:40:58;4.70;;;1.45;;
73951;SDS011;62304;47.662;18.324;2023-05-10T17:44:01;5.23;;;1.30;;
73951;SDS011;62304;47.662;18.324;2023-05-10T17:47:04;3.78;;;1.20;;
73951;SDS011;62304;47.662;18.324;2023-05-10T17:50:08;4.28;;;1.40;;
73951;SDS011;62304;47.662;18.324;2023-05-10T17:53:11;6.22;;;1.50;;
73951;SDS011;62304;47.662;18.324;2023-05-10T17:56:14;6.37;;;2.70;;
73951;SDS011;62304;47.662;18.324;2023-05-10T17:59:17;4.37;;;1.83;;
73951;SDS011;62304;47.662;18.324;2023-05-10T18:02:20;5.15;;;2.20;;
73951;SDS011;62304;47.662;18.324;2023-05-10T18:05:24;4.35;;;2.20;;
73951;SDS011;62304;47.662;18.324;2023-05-10T18:08:27;4.35;;;1.73;;
73951;SDS011;62304;47.662;18.324;2023-05-10T18:11:33;3.80;;;1.70;;
73951;SDS011;62304;47.662;18.324;2023-05-10T18:14:37;6.60;;;2.27;;
73951;SDS011;62304;47.662;18.324;2023-05-10T18:17:43;4.70;;;1.52;;
73951;SDS011;62304;47.662;18.324;2023-05-10T18:20:45;5.62;;;1.85;;
73951;SDS011;62304;47.662;18.324;2023-05-10T18:23:50;3.87;;;1.12;;
73951;SDS011;62304;47.662;18.324;2023-05-10T18:26:53;4.87;;;1.30;;
73951;SDS011;62304;47.662;18.324;2023-05-10T18:29:59;5.00;;;1.50;;
73951;SDS011;62304;47.662;18.324;2023-05-10T18:33:03;4.28;;;1.62;;
73951;SDS011;62304;47.662;18.324;2023-05-10T18:36:07;5.15;;;1.80;;
73951;SDS011;62304;47.662;18.324;2023-05-10T18:39:10;4.03;;;1.40;;